sensor_id;sensor_type;location;lat;lon;timestamp;P1;durP1;ratioP1;P2;durP2;ratioP2
51654;SDS011;37732;53.106;7.030;2023-02-03T00:02:20;6.88;;;2.40;;
51654;SDS011;37732;53.106;7.030;2023-02-03T00:04:46;9.00;;;2.65;;
51654;SDS011;37732;53.106;7.030;2023-02-03T00:07:11;8.35;;;2.35;;
51654;SDS011;37732;53.106;7.030;2023-02-03T00:09:39;6.00;;;2.50;;
51654;SDS011;37732;53.106;7.030;2023-02-03T00:12:05;7.10;;;2.63;;
51654;SDS011;37732;53.106;7.030;2023-02-03T00:14:31;6.38;;;2.78;;
51654;SDS011;37732;53.106;7.030;2023-02-03T00:16:57;8.43;;;2.60;;
51654;SDS011;37732;53.106;7.030;2023-02-03T00:19:23;5.43;;;2.88;;
51654;SDS011;37732;53.106;7.030;2023-02-03T00:21:49;8.95;;;2.50;;
51654;SDS011;37732;53.106;7.030;2023-02-03T00:24:15;12.80;;;3.40;;
51654;SDS011;37732;53.106;7.030;2023-02-03T00:26:43;5.15;;;2.35;;
51654;SDS011;37732;53.106;7.030;2023-02-03T00:29:08;9.20;;;4.00;;
51654;SDS011;37732;53.106;7.030;2023-02-03T00:31:34;7.45;;;3.15;;
51654;SDS011;37732;53.106;7.030;2023-02-03T00:34:00;5.65;;;2.83;;
51654;SDS011;37732;53.106;7.030;2023-02-03T00:36:26;6.72;;;3.05;;
51654;SDS011;37732;53.106;7.030;2023-02-03T00:38:52;7.03;;;2.95;;
51654;SDS011;37732;53.106;7.030;2023-02-03T00:41:18;8.48;;;2.53;;
51654;SDS011;37732;53.106;7.030;2023-02-03T00:43:45;6.25;;;2.72;;
51654;SDS011;37732;53.106;7.030;2023-02-03T00:46:10;5.82;;;2.30;;
51654;SDS011;37732;53.106;7.030;2023-02-03T00:48:36;6.78;;;2.65;;
51654;SDS011;37732;53.106;7.030;2023-02-03T00:51:02;5.78;;;2.72;;
51654;SDS011;37732;53.106;7.030;2023-02-03T00:53:29;8.90;;;3.03;;
51654;SDS011;37732;53.106;7.030;2023-02-03T00:55:54;9.20;;;2.83;;
51654;SDS011;37732;53.106;7.030;2023-02-03T00:58:20;8.63;;;2.70;;
51654;SDS011;37732;53.106;7.030;2023-02-03T01:00:46;7.47;;;2.42;;
51654;SDS011;37732;53.106;7.030;2023-02-03T01:03:12;8.10;;;2.33;;
51654;SDS011;37732;53.106;7.030;2023-02-03T01:05:38;7.30;;;2.08;;
51654;SDS011;37732;53.106;7.030;2023-02-03T01:08:03;8.18;;;2.65;;
51654;SDS011;37732;53.106;7.030;2023-02-03T01:10:29;8.98;;;2.92;;
51654;SDS011;37732;53.106;7.030;2023-02-03T01:12:55;6.50;;;2.40;;
51654;SDS011;37732;53.106;7.030;2023-02-03T01:15:21;6.53;;;2.72;;
51654;SDS011;37732;53.106;7.030;2023-02-03T01:17:46;9.23;;;3.13;;
51654;SDS011;37732;53.106;7.030;2023-02-03T01:20:12;7.03;;;2.75;;
51654;SDS011;37732;53.106;7.030;2023-02-03T01:22:38;7.55;;;2.78;;
51654;SDS011;37732;53.106;7.030;2023-02-03T01:25:04;6.47;;;2.17;;
51654;SDS011;37732;53.106;7.030;2023-02-03T01:27:31;8.88;;;2.60;;
51654;SDS011;37732;53.106;7.030;2023-02-03T01:29:57;10.20;;;2.67;;
51654;SDS011;37732;53.106;7.030;2023-02-03T01:32:22;8.48;;;2.70;;
51654;SDS011;37732;53.106;7.030;2023-02-03T01:34:48;8.25;;;2.60;;
51654;SDS011;37732;53.106;7.030;2023-02-03T01:37:14;5.93;;;3.10;;
51654;SDS011;37732;53.106;7.030;2023-02-03T01:39:42;8.15;;;2.45;;
51654;SDS011;37732;53.106;7.030;2023-02-03T01:42:10;8.40;;;2.85;;
51654;SDS011;37732;53.106;7.030;2023-02-03T01:49:54;7.85;;;2.42;;
51654;SDS011;37732;53.106;7.030;2023-02-03T01:52:35;6.55;;;2.85;;
51654;SDS011;37732;53.106;7.030;2023-02-03T01:55:02;10.82;;;3.10;;
51654;SDS011;37732;53.106;7.030;2023-02-03T01:57:33;8.82;;;2.58;;
51654;SDS011;37732;53.106;7.030;2023-02-03T02:00:05;10.40;;;2.58;;
51654;SDS011;37732;53.106;7.030;2023-02-03T02:12:54;9.77;;;3.17;;
51654;SDS011;37732;53.106;7.030;2023-02-03T02:15:26;7.00;;;2.70;;
51654;SDS011;37732;53.106;7.030;2023-02-03T02:18:27;7.38;;;2.60;;
51654;SDS011;37732;53.106;7.030;2023-02-03T02:35:14;11.02;;;3.53;;
51654;SDS011;37732;53.106;7.030;2023-02-03T02:37:53;7.82;;;3.13;;
51654;SDS011;37732;53.106;7.030;2023-02-03T02:40:43;7.57;;;3.20;;
51654;SDS011;37732;53.106;7.030;2023-02-03T02:46:02;11.32;;;3.85;;
51654;SDS011;37732;53.106;7.030;2023-02-03T02:51:37;9.35;;;3.00;;
51654;SDS011;37732;53.106;7.030;2023-02-03T02:54:06;10.93;;;3.85;;
51654;SDS011;37732;53.106;7.030;2023-02-03T02:56:35;8.93;;;2.72;;
51654;SDS011;37732;53.106;7.030;2023-02-03T02:59:03;8.95;;;3.13;;
51654;SDS011;37732;53.106;7.030;2023-02-03T03:01:30;7.40;;;2.72;;
51654;SDS011;37732;53.106;7.030;2023-02-03T03:03:57;7.53;;;2.83;;
51654;SDS011;37732;53.106;7.030;2023-02-03T03:06:33;9.00;;;3.00;;
51654;SDS011;37732;53.106;7.030;2023-02-03T03:11:44;7.85;;;2.50;;
51654;SDS011;37732;53.106;7.030;2023-02-03T03:14:14;6.75;;;3.40;;
51654;SDS011;37732;53.106;7.030;2023-02-03T03:16:46;12.70;;;3.20;;
51654;SDS011;37732;53.106;7.030;2023-02-03T03:19:17;6.97;;;2.90;;
51654;SDS011;37732;53.106;7.030;2023-02-03T03:21:50;8.35;;;2.67;;
51654;SDS011;37732;53.106;7.030;2023-02-03T03:24:21;8.02;;;2.67;;
51654;SDS011;37732;53.106;7.030;2023-02-03T03:29:38;14.57;;;3.10;;
51654;SDS011;37732;53.106;7.030;2023-02-03T03:32:15;14.95;;;3.40;;
51654;SDS011;37732;53.106;7.030;2023-02-03T03:34:40;11.70;;;4.10;;
51654;SDS011;37732;53.106;7.030;2023-02-03T03:39:42;10.77;;;3.90;;
51654;SDS011;37732;53.106;7.030;2023-02-03T03:45:18;6.90;;;3.03;;
51654;SDS011;37732;53.106;7.030;2023-02-03T03:50:29;8.77;;;3.10;;
51654;SDS011;37732;53.106;7.030;2023-02-03T03:53:00;8.20;;;3.25;;
51654;SDS011;37732;53.106;7.030;2023-02-03T03:55:29;12.18;;;3.45;;
51654;SDS011;37732;53.106;7.030;2023-02-03T03:58:02;11.27;;;3.22;;
51654;SDS011;37732;53.106;7.030;2023-02-03T04:00:40;8.55;;;3.55;;
51654;SDS011;37732;53.106;7.030;2023-02-03T04:03:14;8.68;;;3.65;;
51654;SDS011;37732;53.106;7.030;2023-02-03T04:05:46;8.35;;;2.92;;
51654;SDS011;37732;53.106;7.030;2023-02-03T04:08:12;8.82;;;2.90;;
51654;SDS011;37732;53.106;7.030;2023-02-03T04:10:39;9.30;;;2.90;;
51654;SDS011;37732;53.106;7.030;2023-02-03T04:13:06;8.90;;;3.70;;
51654;SDS011;37732;53.106;7.030;2023-02-03T04:15:32;13.05;;;3.30;;
51654;SDS011;37732;53.106;7.030;2023-02-03T04:17:58;7.93;;;3.10;;
51654;SDS011;37732;53.106;7.030;2023-02-03T04:20:25;14.27;;;3.75;;
51654;SDS011;37732;53.106;7.030;2023-02-03T04:22:52;11.50;;;3.30;;
51654;SDS011;37732;53.106;7.030;2023-02-03T04:25:17;12.50;;;3.55;;
51654;SDS011;37732;53.106;7.030;2023-02-03T04:27:43;11.07;;;3.78;;
51654;SDS011;37732;53.106;7.030;2023-02-03T04:30:09;8.90;;;2.80;;
51654;SDS011;37732;53.106;7.030;2023-02-03T04:32:35;12.70;;;3.35;;
51654;SDS011;37732;53.106;7.030;2023-02-03T04:35:02;9.25;;;4.00;;
51654;SDS011;37732;53.106;7.030;2023-02-03T04:37:29;7.53;;;3.20;;
51654;SDS011;37732;53.106;7.030;2023-02-03T04:39:55;9.25;;;3.95;;
51654;SDS011;37732;53.106;7.030;2023-02-03T04:42:21;8.18;;;2.95;;
51654;SDS011;37732;53.106;7.030;2023-02-03T04:44:48;8.10;;;3.40;;
51654;SDS011;37732;53.106;7.030;2023-02-03T04:47:14;10.10;;;3.55;;
51654;SDS011;37732;53.106;7.030;2023-02-03T04:49:40;9.65;;;3.13;;
51654;SDS011;37732;53.106;7.030;2023-02-03T04:52:06;7.57;;;2.70;;
51654;SDS011;37732;53.106;7.030;2023-02-03T04:54:32;12.13;;;3.28;;
51654;SDS011;37732;53.106;7.030;2023-02-03T04:56:58;8.82;;;3.33;;
51654;SDS011;37732;53.106;7.030;2023-02-03T04:59:24;15.25;;;3.00;;
51654;SDS011;37732;53.106;7.030;2023-02-03T05:01:50;8.65;;;2.92;;
51654;SDS011;37732;53.106;7.030;2023-02-03T05:04:16;10.25;;;3.70;;
51654;SDS011;37732;53.106;7.030;2023-02-03T05:06:41;9.05;;;3.42;;
51654;SDS011;37732;53.106;7.030;2023-02-03T05:09:07;11.25;;;3.45;;
51654;SDS011;37732;53.106;7.030;2023-02-03T05:11:32;10.00;;;3.30;;
51654;SDS011;37732;53.106;7.030;2023-02-03T05:13:58;9.27;;;3.33;;
51654;SDS011;37732;53.106;7.030;2023-02-03T05:16:24;10.07;;;3.40;;
51654;SDS011;37732;53.106;7.030;2023-02-03T05:18:50;10.35;;;2.92;;
51654;SDS011;37732;53.106;7.030;2023-02-03T05:21:15;10.20;;;3.30;;
51654;SDS011;37732;53.106;7.030;2023-02-03T05:23:41;11.60;;;3.22;;
51654;SDS011;37732;53.106;7.030;2023-02-03T05:26:07;11.57;;;3.30;;
51654;SDS011;37732;53.106;7.030;2023-02-03T05:28:32;12.40;;;2.80;;
51654;SDS011;37732;53.106;7.030;2023-02-03T05:30:59;12.18;;;3.22;;
51654;SDS011;37732;53.106;7.030;2023-02-03T05:33:25;11.02;;;3.30;;
51654;SDS011;37732;53.106;7.030;2023-02-03T05:35:52;9.50;;;3.88;;
51654;SDS011;37732;53.106;7.030;2023-02-03T05:38:17;12.10;;;3.13;;
51654;SDS011;37732;53.106;7.030;2023-02-03T05:40:43;14.52;;;4.15;;
51654;SDS011;37732;53.106;7.030;2023-02-03T05:43:31;8.15;;;3.25;;
51654;SDS011;37732;53.106;7.030;2023-02-03T05:46:01;9.02;;;3.25;;
51654;SDS011;37732;53.106;7.030;2023-02-03T05:48:27;8.25;;;3.10;;
51654;SDS011;37732;53.106;7.030;2023-02-03T05:50:53;11.82;;;4.18;;
51654;SDS011;37732;53.106;7.030;2023-02-03T05:53:19;14.13;;;4.20;;
51654;SDS011;37732;53.106;7.030;2023-02-03T05:55:44;10.52;;;4.07;;
51654;SDS011;37732;53.106;7.030;2023-02-03T05:58:10;15.32;;;4.47;;
51654;SDS011;37732;53.106;7.030;2023-02-03T06:00:36;8.75;;;3.40;;
51654;SDS011;37732;53.106;7.030;2023-02-03T06:03:02;11.52;;;3.38;;
51654;SDS011;37732;53.106;7.030;2023-02-03T06:05:29;11.25;;;3.63;;
51654;SDS011;37732;53.106;7.030;2023-02-03T06:07:56;10.23;;;3.90;;
51654;SDS011;37732;53.106;7.030;2023-02-03T06:10:22;10.80;;;4.07;;
51654;SDS011;37732;53.106;7.030;2023-02-03T06:12:48;11.48;;;4.35;;
51654;SDS011;37732;53.106;7.030;2023-02-03T06:15:14;9.05;;;4.40;;
51654;SDS011;37732;53.106;7.030;2023-02-03T06:17:44;11.70;;;3.58;;
51654;SDS011;37732;53.106;7.030;2023-02-03T06:20:11;11.63;;;4.72;;
51654;SDS011;37732;53.106;7.030;2023-02-03T06:22:38;12.63;;;4.57;;
51654;SDS011;37732;53.106;7.030;2023-02-03T06:25:04;12.25;;;4.40;;
51654;SDS011;37732;53.106;7.030;2023-02-03T06:27:30;11.15;;;3.80;;
51654;SDS011;37732;53.106;7.030;2023-02-03T06:29:55;12.32;;;4.30;;
51654;SDS011;37732;53.106;7.030;2023-02-03T06:32:21;12.43;;;4.60;;
51654;SDS011;37732;53.106;7.030;2023-02-03T06:34:47;11.73;;;4.30;;
51654;SDS011;37732;53.106;7.030;2023-02-03T06:37:13;12.07;;;4.90;;
51654;SDS011;37732;53.106;7.030;2023-02-03T06:39:39;12.18;;;4.97;;
51654;SDS011;37732;53.106;7.030;2023-02-03T06:42:05;10.38;;;4.50;;
51654;SDS011;37732;53.106;7.030;2023-02-03T06:44:30;11.60;;;4.05;;
51654;SDS011;37732;53.106;7.030;2023-02-03T06:46:56;13.73;;;4.57;;
51654;SDS011;37732;53.106;7.030;2023-02-03T06:49:22;13.55;;;4.82;;
51654;SDS011;37732;53.106;7.030;2023-02-03T06:51:49;15.27;;;4.45;;
51654;SDS011;37732;53.106;7.030;2023-02-03T06:54:16;11.25;;;4.47;;
51654;SDS011;37732;53.106;7.030;2023-02-03T06:56:42;13.48;;;4.82;;
51654;SDS011;37732;53.106;7.030;2023-02-03T06:59:07;12.50;;;4.80;;
51654;SDS011;37732;53.106;7.030;2023-02-03T07:01:34;14.95;;;6.13;;
51654;SDS011;37732;53.106;7.030;2023-02-03T07:04:03;11.30;;;4.78;;
51654;SDS011;37732;53.106;7.030;2023-02-03T07:06:29;15.95;;;5.72;;
51654;SDS011;37732;53.106;7.030;2023-02-03T07:08:58;16.60;;;5.18;;
51654;SDS011;37732;53.106;7.030;2023-02-03T07:11:25;15.48;;;4.85;;
51654;SDS011;37732;53.106;7.030;2023-02-03T07:13:51;11.10;;;4.55;;
51654;SDS011;37732;53.106;7.030;2023-02-03T07:16:16;12.75;;;4.75;;
51654;SDS011;37732;53.106;7.030;2023-02-03T07:18:42;17.20;;;6.18;;
51654;SDS011;37732;53.106;7.030;2023-02-03T07:21:08;12.48;;;5.47;;
51654;SDS011;37732;53.106;7.030;2023-02-03T07:23:34;13.93;;;4.60;;
51654;SDS011;37732;53.106;7.030;2023-02-03T07:26:00;13.90;;;5.97;;
51654;SDS011;37732;53.106;7.030;2023-02-03T07:28:29;16.15;;;5.45;;
51654;SDS011;37732;53.106;7.030;2023-02-03T07:30:55;14.93;;;5.05;;
51654;SDS011;37732;53.106;7.030;2023-02-03T07:33:20;15.43;;;4.82;;
51654;SDS011;37732;53.106;7.030;2023-02-03T07:35:57;14.38;;;5.38;;
51654;SDS011;37732;53.106;7.030;2023-02-03T07:38:24;15.95;;;5.80;;
51654;SDS011;37732;53.106;7.030;2023-02-03T07:40:50;15.25;;;5.65;;
51654;SDS011;37732;53.106;7.030;2023-02-03T07:43:16;12.10;;;4.78;;
51654;SDS011;37732;53.106;7.030;2023-02-03T07:45:42;10.90;;;4.90;;
51654;SDS011;37732;53.106;7.030;2023-02-03T07:48:08;29.65;;;5.40;;
51654;SDS011;37732;53.106;7.030;2023-02-03T07:50:35;13.98;;;4.95;;
51654;SDS011;37732;53.106;7.030;2023-02-03T07:53:01;15.35;;;6.30;;
51654;SDS011;37732;53.106;7.030;2023-02-03T07:55:27;13.77;;;5.68;;
51654;SDS011;37732;53.106;7.030;2023-02-03T07:57:53;17.05;;;6.40;;
51654;SDS011;37732;53.106;7.030;2023-02-03T08:00:20;10.27;;;5.18;;
51654;SDS011;37732;53.106;7.030;2023-02-03T08:02:46;19.15;;;4.93;;
51654;SDS011;37732;53.106;7.030;2023-02-03T08:05:13;13.68;;;4.88;;
51654;SDS011;37732;53.106;7.030;2023-02-03T08:07:40;18.05;;;6.43;;
51654;SDS011;37732;53.106;7.030;2023-02-03T08:10:06;16.33;;;6.53;;
51654;SDS011;37732;53.106;7.030;2023-02-03T08:12:35;17.35;;;8.18;;
51654;SDS011;37732;53.106;7.030;2023-02-03T08:15:01;21.38;;;9.30;;
51654;SDS011;37732;53.106;7.030;2023-02-03T08:17:27;21.15;;;8.75;;
51654;SDS011;37732;53.106;7.030;2023-02-03T08:19:52;14.70;;;7.03;;
51654;SDS011;37732;53.106;7.030;2023-02-03T08:22:18;17.95;;;7.28;;
51654;SDS011;37732;53.106;7.030;2023-02-03T08:24:44;11.77;;;5.82;;
51654;SDS011;37732;53.106;7.030;2023-02-03T08:27:11;17.00;;;6.18;;
51654;SDS011;37732;53.106;7.030;2023-02-03T08:29:38;15.15;;;6.03;;
51654;SDS011;37732;53.106;7.030;2023-02-03T08:32:04;13.65;;;5.70;;
51654;SDS011;37732;53.106;7.030;2023-02-03T08:34:32;12.00;;;5.20;;
51654;SDS011;37732;53.106;7.030;2023-02-03T08:36:58;16.20;;;6.00;;
51654;SDS011;37732;53.106;7.030;2023-02-03T08:39:24;17.80;;;6.57;;
51654;SDS011;37732;53.106;7.030;2023-02-03T08:41:49;16.08;;;6.40;;
51654;SDS011;37732;53.106;7.030;2023-02-03T08:44:15;21.88;;;6.80;;
51654;SDS011;37732;53.106;7.030;2023-02-03T08:46:42;16.05;;;7.00;;
51654;SDS011;37732;53.106;7.030;2023-02-03T08:49:09;20.88;;;6.80;;
51654;SDS011;37732;53.106;7.030;2023-02-03T08:51:35;16.00;;;6.05;;
51654;SDS011;37732;53.106;7.030;2023-02-03T08:54:00;19.02;;;5.70;;
51654;SDS011;37732;53.106;7.030;2023-02-03T08:56:27;21.48;;;6.35;;
51654;SDS011;37732;53.106;7.030;2023-02-03T08:58:53;21.08;;;6.85;;
51654;SDS011;37732;53.106;7.030;2023-02-03T09:01:19;19.30;;;6.13;;
51654;SDS011;37732;53.106;7.030;2023-02-03T09:03:45;16.65;;;6.40;;
51654;SDS011;37732;53.106;7.030;2023-02-03T09:06:11;20.95;;;6.47;;
51654;SDS011;37732;53.106;7.030;2023-02-03T09:08:40;18.98;;;7.10;;
51654;SDS011;37732;53.106;7.030;2023-02-03T09:11:08;15.50;;;6.35;;
51654;SDS011;37732;53.106;7.030;2023-02-03T09:13:39;16.20;;;5.50;;
51654;SDS011;37732;53.106;7.030;2023-02-03T09:16:07;22.55;;;7.65;;
51654;SDS011;37732;53.106;7.030;2023-02-03T09:18:33;16.90;;;7.05;;
51654;SDS011;37732;53.106;7.030;2023-02-03T09:21:02;26.38;;;8.40;;
51654;SDS011;37732;53.106;7.030;2023-02-03T09:23:32;19.88;;;7.10;;
51654;SDS011;37732;53.106;7.030;2023-02-03T09:26:05;25.23;;;6.97;;
51654;SDS011;37732;53.106;7.030;2023-02-03T09:28:31;23.25;;;7.45;;
51654;SDS011;37732;53.106;7.030;2023-02-03T09:31:01;22.58;;;6.63;;
51654;SDS011;37732;53.106;7.030;2023-02-03T09:33:29;21.52;;;7.47;;
51654;SDS011;37732;53.106;7.030;2023-02-03T09:35:55;21.55;;;7.85;;
51654;SDS011;37732;53.106;7.030;2023-02-03T09:38:22;22.20;;;7.88;;
51654;SDS011;37732;53.106;7.030;2023-02-03T09:40:50;22.80;;;7.55;;
51654;SDS011;37732;53.106;7.030;2023-02-03T09:46:23;22.55;;;7.97;;
51654;SDS011;37732;53.106;7.030;2023-02-03T09:48:52;25.75;;;7.47;;
51654;SDS011;37732;53.106;7.030;2023-02-03T09:54:19;26.25;;;8.88;;
51654;SDS011;37732;53.106;7.030;2023-02-03T09:57:04;29.45;;;8.05;;
51654;SDS011;37732;53.106;7.030;2023-02-03T10:04:38;21.42;;;7.65;;
51654;SDS011;37732;53.106;7.030;2023-02-03T10:12:36;19.17;;;8.10;;
51654;SDS011;37732;53.106;7.030;2023-02-03T10:18:22;20.98;;;7.72;;
51654;SDS011;37732;53.106;7.030;2023-02-03T10:20:55;20.85;;;8.85;;
51654;SDS011;37732;53.106;7.030;2023-02-03T10:23:30;30.27;;;8.80;;
51654;SDS011;37732;53.106;7.030;2023-02-03T10:26:00;29.42;;;9.13;;
51654;SDS011;37732;53.106;7.030;2023-02-03T10:28:30;23.98;;;8.05;;
51654;SDS011;37732;53.106;7.030;2023-02-03T10:31:02;23.98;;;8.00;;
51654;SDS011;37732;53.106;7.030;2023-02-03T10:33:38;26.42;;;8.48;;
51654;SDS011;37732;53.106;7.030;2023-02-03T10:36:16;25.55;;;7.93;;
51654;SDS011;37732;53.106;7.030;2023-02-03T10:41:18;27.93;;;9.40;;
51654;SDS011;37732;53.106;7.030;2023-02-03T10:43:45;22.45;;;7.72;;
51654;SDS011;37732;53.106;7.030;2023-02-03T10:46:11;26.85;;;9.65;;
51654;SDS011;37732;53.106;7.030;2023-02-03T10:48:41;35.88;;;11.20;;
51654;SDS011;37732;53.106;7.030;2023-02-03T10:51:11;24.33;;;8.95;;
51654;SDS011;37732;53.106;7.030;2023-02-03T10:53:51;23.17;;;7.53;;
51654;SDS011;37732;53.106;7.030;2023-02-03T10:56:24;25.23;;;8.50;;
51654;SDS011;37732;53.106;7.030;2023-02-03T10:58:54;23.05;;;8.88;;
51654;SDS011;37732;53.106;7.030;2023-02-03T11:01:25;26.83;;;8.50;;
51654;SDS011;37732;53.106;7.030;2023-02-03T11:04:23;26.42;;;9.57;;
51654;SDS011;37732;53.106;7.030;2023-02-03T11:06:54;22.02;;;8.82;;
51654;SDS011;37732;53.106;7.030;2023-02-03T11:09:28;28.63;;;9.27;;
51654;SDS011;37732;53.106;7.030;2023-02-03T11:12:11;27.70;;;8.75;;
51654;SDS011;37732;53.106;7.030;2023-02-03T11:14:39;25.63;;;9.30;;
51654;SDS011;37732;53.106;7.030;2023-02-03T11:17:15;31.60;;;10.20;;
51654;SDS011;37732;53.106;7.030;2023-02-03T11:19:51;30.25;;;8.23;;
51654;SDS011;37732;53.106;7.030;2023-02-03T11:22:28;28.40;;;10.07;;
51654;SDS011;37732;53.106;7.030;2023-02-03T11:25:02;28.90;;;12.20;;
51654;SDS011;37732;53.106;7.030;2023-02-03T11:27:39;29.13;;;9.70;;
51654;SDS011;37732;53.106;7.030;2023-02-03T11:30:08;34.97;;;9.90;;
51654;SDS011;37732;53.106;7.030;2023-02-03T11:32:45;29.30;;;9.50;;
51654;SDS011;37732;53.106;7.030;2023-02-03T11:35:13;34.63;;;9.90;;
51654;SDS011;37732;53.106;7.030;2023-02-03T11:37:43;30.52;;;9.60;;
51654;SDS011;37732;53.106;7.030;2023-02-03T11:47:46;28.17;;;8.73;;
51654;SDS011;37732;53.106;7.030;2023-02-03T11:52:57;31.05;;;10.43;;
51654;SDS011;37732;53.106;7.030;2023-02-03T11:55:48;32.60;;;10.27;;
51654;SDS011;37732;53.106;7.030;2023-02-03T11:58:29;25.70;;;9.57;;
51654;SDS011;37732;53.106;7.030;2023-02-03T12:04:16;27.45;;;9.20;;
51654;SDS011;37732;53.106;7.030;2023-02-03T12:06:54;23.58;;;8.85;;
51654;SDS011;37732;53.106;7.030;2023-02-03T12:20:49;20.02;;;8.13;;
51654;SDS011;37732;53.106;7.030;2023-02-03T12:26:24;31.65;;;8.68;;
51654;SDS011;37732;53.106;7.030;2023-02-03T12:29:12;28.60;;;9.15;;
51654;SDS011;37732;53.106;7.030;2023-02-03T12:32:05;29.23;;;8.88;;
51654;SDS011;37732;53.106;7.030;2023-02-03T12:34:42;29.55;;;9.18;;
51654;SDS011;37732;53.106;7.030;2023-02-03T12:37:26;35.22;;;9.48;;
51654;SDS011;37732;53.106;7.030;2023-02-03T12:42:53;22.20;;;8.65;;
51654;SDS011;37732;53.106;7.030;2023-02-03T12:45:27;29.38;;;9.10;;
51654;SDS011;37732;53.106;7.030;2023-02-03T12:47:59;24.27;;;8.32;;
51654;SDS011;37732;53.106;7.030;2023-02-03T12:50:43;22.50;;;8.45;;
51654;SDS011;37732;53.106;7.030;2023-02-03T12:53:21;20.83;;;8.05;;
51654;SDS011;37732;53.106;7.030;2023-02-03T12:56:02;21.27;;;7.93;;
51654;SDS011;37732;53.106;7.030;2023-02-03T12:58:55;29.55;;;8.25;;
51654;SDS011;37732;53.106;7.030;2023-02-03T13:01:44;24.55;;;7.63;;
51654;SDS011;37732;53.106;7.030;2023-02-03T13:04:23;25.63;;;8.93;;
51654;SDS011;37732;53.106;7.030;2023-02-03T13:14:42;22.08;;;8.75;;
51654;SDS011;37732;53.106;7.030;2023-02-03T13:17:15;24.95;;;7.85;;
51654;SDS011;37732;53.106;7.030;2023-02-03T13:19:59;29.63;;;9.15;;
51654;SDS011;37732;53.106;7.030;2023-02-03T13:22:29;22.35;;;8.35;;
51654;SDS011;37732;53.106;7.030;2023-02-03T13:25:05;23.27;;;7.93;;
51654;SDS011;37732;53.106;7.030;2023-02-03T13:28:04;29.20;;;8.38;;
51654;SDS011;37732;53.106;7.030;2023-02-03T13:36:11;26.05;;;9.00;;
51654;SDS011;37732;53.106;7.030;2023-02-03T13:44:14;32.13;;;10.40;;
51654;SDS011;37732;53.106;7.030;2023-02-03T13:46:44;23.63;;;9.63;;
51654;SDS011;37732;53.106;7.030;2023-02-03T13:49:17;25.75;;;10.10;;
51654;SDS011;37732;53.106;7.030;2023-02-03T13:51:57;32.25;;;11.57;;
51654;SDS011;37732;53.106;7.030;2023-02-03T13:56:54;27.25;;;9.00;;
51654;SDS011;37732;53.106;7.030;2023-02-03T14:12:36;27.83;;;9.35;;
51654;SDS011;37732;53.106;7.030;2023-02-03T14:18:29;29.55;;;9.57;;
51654;SDS011;37732;53.106;7.030;2023-02-03T14:21:08;28.35;;;8.95;;
51654;SDS011;37732;53.106;7.030;2023-02-03T14:23:38;33.38;;;10.20;;
51654;SDS011;37732;53.106;7.030;2023-02-03T14:26:42;21.80;;;8.48;;
51654;SDS011;37732;53.106;7.030;2023-02-03T14:29:03;44.75;;;11.38;;
51654;SDS011;37732;53.106;7.030;2023-02-03T14:31:30;26.13;;;9.93;;
51654;SDS011;37732;53.106;7.030;2023-02-03T14:34:00;24.27;;;9.40;;
51654;SDS011;37732;53.106;7.030;2023-02-03T14:50:07;27.73;;;8.80;;
51654;SDS011;37732;53.106;7.030;2023-02-03T14:58:43;28.15;;;8.35;;
51654;SDS011;37732;53.106;7.030;2023-02-03T15:09:22;20.83;;;7.57;;
51654;SDS011;37732;53.106;7.030;2023-02-03T15:12:22;25.65;;;8.95;;
51654;SDS011;37732;53.106;7.030;2023-02-03T15:14:50;28.00;;;8.18;;
51654;SDS011;37732;53.106;7.030;2023-02-03T15:19:51;29.48;;;8.52;;
51654;SDS011;37732;53.106;7.030;2023-02-03T15:22:20;27.75;;;8.13;;
51654;SDS011;37732;53.106;7.030;2023-02-03T15:24:47;29.95;;;8.73;;
51654;SDS011;37732;53.106;7.030;2023-02-03T15:27:22;27.10;;;8.32;;
51654;SDS011;37732;53.106;7.030;2023-02-03T15:29:53;25.42;;;8.35;;
51654;SDS011;37732;53.106;7.030;2023-02-03T15:32:23;23.38;;;8.63;;
51654;SDS011;37732;53.106;7.030;2023-02-03T15:34:58;33.70;;;9.57;;
51654;SDS011;37732;53.106;7.030;2023-02-03T15:37:28;19.52;;;7.93;;
51654;SDS011;37732;53.106;7.030;2023-02-03T15:39:58;24.27;;;8.27;;
51654;SDS011;37732;53.106;7.030;2023-02-03T15:42:27;21.65;;;7.47;;
51654;SDS011;37732;53.106;7.030;2023-02-03T15:45:05;22.67;;;8.10;;
51654;SDS011;37732;53.106;7.030;2023-02-03T15:47:36;23.50;;;8.43;;
51654;SDS011;37732;53.106;7.030;2023-02-03T15:52:49;22.42;;;7.57;;
51654;SDS011;37732;53.106;7.030;2023-02-03T15:57:56;32.30;;;8.55;;
51654;SDS011;37732;53.106;7.030;2023-02-03T16:00:30;22.85;;;8.75;;
51654;SDS011;37732;53.106;7.030;2023-02-03T16:03:02;27.63;;;9.63;;
51654;SDS011;37732;53.106;7.030;2023-02-03T16:05:37;22.50;;;8.27;;
51654;SDS011;37732;53.106;7.030;2023-02-03T16:10:52;25.95;;;9.18;;
51654;SDS011;37732;53.106;7.030;2023-02-03T16:13:18;29.55;;;7.90;;
51654;SDS011;37732;53.106;7.030;2023-02-03T16:16:00;29.58;;;8.32;;
51654;SDS011;37732;53.106;7.030;2023-02-03T16:18:30;19.85;;;7.85;;
51654;SDS011;37732;53.106;7.030;2023-02-03T16:20:59;24.67;;;8.15;;
51654;SDS011;37732;53.106;7.030;2023-02-03T16:23:25;22.33;;;7.57;;
51654;SDS011;37732;53.106;7.030;2023-02-03T16:26:03;26.63;;;8.10;;
51654;SDS011;37732;53.106;7.030;2023-02-03T16:28:53;29.65;;;9.05;;
51654;SDS011;37732;53.106;7.030;2023-02-03T16:34:42;27.50;;;9.02;;
51654;SDS011;37732;53.106;7.030;2023-02-03T16:40:17;17.83;;;7.07;;
51654;SDS011;37732;53.106;7.030;2023-02-03T16:43:12;21.15;;;7.03;;
51654;SDS011;37732;53.106;7.030;2023-02-03T16:45:58;27.05;;;8.05;;
51654;SDS011;37732;53.106;7.030;2023-02-03T16:48:43;35.85;;;9.90;;
51654;SDS011;37732;53.106;7.030;2023-02-03T16:51:37;25.77;;;10.70;;
51654;SDS011;37732;53.106;7.030;2023-02-03T16:54:04;27.75;;;11.07;;
51654;SDS011;37732;53.106;7.030;2023-02-03T16:56:31;28.65;;;9.70;;
51654;SDS011;37732;53.106;7.030;2023-02-03T16:58:57;27.35;;;9.40;;
51654;SDS011;37732;53.106;7.030;2023-02-03T17:01:22;26.40;;;10.27;;
51654;SDS011;37732;53.106;7.030;2023-02-03T17:03:48;33.88;;;11.73;;
51654;SDS011;37732;53.106;7.030;2023-02-03T17:06:14;29.65;;;10.13;;
51654;SDS011;37732;53.106;7.030;2023-02-03T17:08:40;36.33;;;11.15;;
51654;SDS011;37732;53.106;7.030;2023-02-03T17:11:15;28.17;;;9.93;;
51654;SDS011;37732;53.106;7.030;2023-02-03T17:13:43;22.38;;;9.20;;
51654;SDS011;37732;53.106;7.030;2023-02-03T17:16:11;27.48;;;8.45;;
51654;SDS011;37732;53.106;7.030;2023-02-03T17:18:40;22.17;;;8.40;;
51654;SDS011;37732;53.106;7.030;2023-02-03T17:21:08;30.73;;;9.07;;
51654;SDS011;37732;53.106;7.030;2023-02-03T17:23:36;37.03;;;10.98;;
51654;SDS011;37732;53.106;7.030;2023-02-03T17:26:02;19.13;;;9.07;;
51654;SDS011;37732;53.106;7.030;2023-02-03T17:28:28;25.65;;;8.23;;
51654;SDS011;37732;53.106;7.030;2023-02-03T17:30:55;36.20;;;10.85;;
51654;SDS011;37732;53.106;7.030;2023-02-03T17:33:25;28.58;;;8.90;;
51654;SDS011;37732;53.106;7.030;2023-02-03T17:35:59;19.05;;;8.77;;
51654;SDS011;37732;53.106;7.030;2023-02-03T17:38:25;24.75;;;7.88;;
51654;SDS011;37732;53.106;7.030;2023-02-03T17:40:51;27.40;;;8.57;;
51654;SDS011;37732;53.106;7.030;2023-02-03T17:43:17;29.60;;;9.18;;
51654;SDS011;37732;53.106;7.030;2023-02-03T17:45:43;27.98;;;10.48;;
51654;SDS011;37732;53.106;7.030;2023-02-03T17:48:09;26.17;;;8.00;;
51654;SDS011;37732;53.106;7.030;2023-02-03T17:50:36;34.38;;;10.27;;
51654;SDS011;37732;53.106;7.030;2023-02-03T17:53:01;24.98;;;9.38;;
51654;SDS011;37732;53.106;7.030;2023-02-03T17:55:27;24.98;;;7.88;;
51654;SDS011;37732;53.106;7.030;2023-02-03T17:57:54;27.45;;;8.90;;